Terminal Aerodrome Forecast
Issued by NWS

Home | Current Version | Previous Version | Graphics & Text | Print | Product List | Glossary On
Versions: 1 2 3 4 5 6 7 8 9 10 11 12 13 14 15 16 17 18 19 20 21 22 23 24 25 26 27 28 29 30 31 32 33 34 35 36
000
FTUS43 KGRB 032300
TAFRHI
TAF
KRHI 032322Z 0400/0424 28010G18KT P6SM -SN SCT018 OVC028
      TEMPO 0400/0402 4SM -SHSN BKN018
     FM040200 29011G19KT P6SM SCT022
      TEMPO 0402/0404 -SN BKN022
     FM041600 29014G23KT P6SM SCT025=

USA.gov is the U.S. government's official web portal to all federal, state and local government web resources and services.